createdAt,value
2022-10-05T00:01:33.259Z,97.04
2022-10-05T00:04:13.790Z,96.93
2022-10-05T00:06:41.863Z,96.86
2022-10-05T00:09:16.561Z,97.00
2022-10-05T00:11:45.079Z,96.92
2022-10-05T00:14:18.303Z,96.95
2022-10-05T00:16:45.663Z,97.01
2022-10-05T00:19:24.704Z,97.04
2022-10-05T00:21:51.829Z,96.63
2022-10-05T00:24:20.290Z,96.54
2022-10-05T00:26:55.396Z,96.33
2022-10-05T00:29:25.218Z,96.20
2022-10-05T00:31:53.324Z,96.09
2022-10-05T00:34:20.862Z,96.03
2022-10-05T00:36:48.744Z,96.29
2022-10-05T00:39:18.740Z,96.47
2022-10-05T00:42:08.536Z,96.52
2022-10-05T00:44:55.337Z,96.78
2022-10-05T00:47:44.784Z,97.21
2022-10-05T00:50:44.314Z,97.38
2022-10-05T00:53:33.278Z,97.54
2022-10-05T00:56:22.427Z,97.22
2022-10-05T00:59:10.352Z,97.34
2022-10-05T01:01:45.294Z,97.28
2022-10-05T01:04:20.562Z,97.23
2022-10-05T01:06:53.237Z,97.07
2022-10-05T01:09:39.039Z,97.25
2022-10-05T01:12:14.131Z,97.44
2022-10-05T01:14:53.098Z,97.42
2022-10-05T01:17:28.745Z,97.22
2022-10-05T01:20:13.297Z,97.00
2022-10-05T01:23:01.593Z,97.25
2022-10-05T01:26:03.180Z,97.08
2022-10-05T01:29:03.389Z,97.18
2022-10-05T01:32:08.657Z,97.25
2022-10-05T01:34:39.877Z,97.12
2022-10-05T01:37:34.978Z,97.23
2022-10-05T01:40:24.093Z,97.12
2022-10-05T01:43:19.196Z,97.17
2022-10-05T01:46:14.631Z,97.05
2022-10-05T01:49:19.312Z,96.78
2022-10-05T01:52:17.563Z,96.74
2022-10-05T01:54:48.406Z,96.86
2022-10-05T01:57:43.317Z,96.94
2022-10-05T02:00:15.436Z,96.78
2022-10-05T02:02:57.558Z,96.08
2022-10-05T02:05:30.459Z,95.75
2022-10-05T02:08:04.119Z,95.48
2022-10-05T02:10:53.734Z,95.41
2022-10-05T02:13:41.638Z,95.68
2022-10-05T02:16:16.005Z,95.74
2022-10-05T02:18:52.987Z,95.94
2022-10-05T02:21:20.544Z,96.35
2022-10-05T02:23:49.928Z,96.48
2022-10-05T02:26:17.318Z,96.50
2022-10-05T02:28:52.701Z,96.48
2022-10-05T02:31:25.004Z,96.81
2022-10-05T02:33:52.665Z,96.79
2022-10-05T02:36:28.206Z,95.91
2022-10-05T02:39:43.383Z,96.04
2022-10-05T02:42:11.688Z,96.11
2022-10-05T02:44:49.678Z,96.03
2022-10-05T02:47:47.855Z,96.11
2022-10-05T02:50:18.158Z,96.36
2022-10-05T02:53:03.537Z,96.72
2022-10-05T02:55:33.553Z,96.85
2022-10-05T02:58:25.597Z,97.23
2022-10-05T03:01:03.495Z,97.73
2022-10-05T03:03:35.558Z,98.36
2022-10-05T03:06:26.423Z,98.81
2022-10-05T03:09:03.455Z,99.08
2022-10-05T03:11:49.136Z,99.02
2022-10-05T03:14:31.958Z,99.25
2022-10-05T03:17:23.055Z,99.50
2022-10-05T03:20:12.734Z,99.46
2022-10-05T03:22:53.917Z,99.44
2022-10-05T03:25:31.117Z,99.50
2022-10-05T03:28:14.567Z,99.53
2022-10-05T03:31:08.300Z,99.43
2022-10-05T03:34:13.557Z,99.39
2022-10-05T03:37:00.377Z,99.30
2022-10-05T03:39:40.410Z,99.31
2022-10-05T03:42:35.181Z,99.06
2022-10-05T03:45:33.164Z,99.31
2022-10-05T03:48:12.196Z,99.43
2022-10-05T03:50:58.087Z,99.41
2022-10-05T03:53:31.650Z,99.51
2022-10-05T03:56:10.709Z,99.43
2022-10-05T03:59:01.310Z,99.39
2022-10-05T04:01:51.383Z,99.27
2022-10-05T04:04:34.518Z,99.25
2022-10-05T04:07:02.297Z,99.25
2022-10-05T04:09:41.383Z,99.16
2022-10-05T04:12:20.326Z,98.73
2022-10-05T04:14:50.421Z,98.17
2022-10-05T04:17:32.200Z,98.08
2022-10-05T04:20:04.867Z,97.96
2022-10-05T04:22:43.501Z,97.69
2022-10-05T04:25:16.178Z,97.44
2022-10-05T04:28:13.848Z,97.54
2022-10-05T04:30:44.693Z,98.01
2022-10-05T04:33:18.741Z,98.26
2022-10-05T04:35:58.495Z,98.62
2022-10-05T04:38:47.874Z,99.01
2022-10-05T04:41:31.832Z,99.27
2022-10-05T04:44:25.366Z,99.43
2022-10-05T04:47:08.701Z,99.63
2022-10-05T04:50:03.812Z,99.57
2022-10-05T04:52:46.856Z,99.25
2022-10-05T04:55:29.919Z,99.01
2022-10-05T04:58:03.154Z,98.89
2022-10-05T05:00:49.611Z,98.91
2022-10-05T05:03:40.464Z,99.07
2022-10-05T05:06:20.085Z,99.15
2022-10-05T05:09:13.654Z,98.97
2022-10-05T05:12:04.147Z,98.90
2022-10-05T05:15:04.696Z,99.15
2022-10-05T05:18:10.467Z,99.20
2022-10-05T05:21:03.098Z,98.99
2022-10-05T05:24:04.418Z,99.00
2022-10-05T05:27:09.493Z,98.84
2022-10-05T05:29:52.913Z,98.93
2022-10-05T05:32:43.317Z,98.73
2022-10-05T05:35:28.058Z,98.95
2022-10-05T05:38:20.613Z,98.66
2022-10-05T05:41:08.672Z,98.57
2022-10-05T05:43:56.898Z,98.28
2022-10-05T05:46:51.597Z,98.00
2022-10-05T05:49:24.558Z,97.95
2022-10-05T05:51:56.611Z,97.88
2022-10-05T05:54:39.578Z,97.82
2022-10-05T05:57:19.216Z,97.73
2022-10-05T05:59:52.691Z,97.59
2022-10-05T06:02:24.336Z,97.63
2022-10-05T06:04:57.636Z,97.43
2022-10-05T06:07:30.584Z,97.41
2022-10-05T06:10:22.923Z,97.27
2022-10-05T06:13:05.587Z,97.53
2022-10-05T06:15:40.651Z,97.50
2022-10-05T06:18:13.494Z,97.56
2022-10-05T06:20:47.298Z,97.36
2022-10-05T06:23:28.762Z,96.95
2022-10-05T06:26:09.741Z,97.02
2022-10-05T06:28:38.651Z,97.20
2022-10-05T06:31:12.295Z,97.15
2022-10-05T06:33:49.094Z,96.51
2022-10-05T06:36:33.407Z,96.50
2022-10-05T06:39:27.725Z,96.53
2022-10-05T06:42:01.424Z,95.85
2022-10-05T06:45:07.232Z,95.59
2022-10-05T06:48:04.921Z,95.17
2022-10-05T06:51:15.740Z,94.79
2022-10-05T06:54:16.955Z,94.31
2022-10-05T06:56:50.173Z,93.87
2022-10-05T06:59:43.357Z,93.93
2022-10-05T07:02:29.947Z,93.76
2022-10-05T07:05:28.976Z,93.98
2022-10-05T07:08:01.652Z,93.95
2022-10-05T07:10:34.422Z,94.09
2022-10-05T07:13:20.625Z,94.19
2022-10-05T07:15:50.637Z,94.15
2022-10-05T07:18:23.781Z,93.89
2022-10-05T07:21:00.700Z,93.84
2022-10-05T07:23:42.609Z,93.71
2022-10-05T07:26:16.139Z,93.52
2022-10-05T07:29:08.757Z,93.35
2022-10-05T07:31:51.774Z,93.16
2022-10-05T07:34:47.967Z,93.20
2022-10-05T07:37:44.457Z,93.01
2022-10-05T07:40:18.749Z,92.59
2022-10-05T07:43:22.159Z,91.78
2022-10-05T07:46:10.137Z,91.53
2022-10-05T07:48:57.449Z,91.24
2022-10-05T07:51:37.877Z,90.95
2022-10-05T07:54:08.618Z,90.94
2022-10-05T07:56:43.447Z,90.91
2022-10-05T07:59:44.283Z,90.63
2022-10-05T08:02:43.420Z,90.34
2022-10-05T08:05:16.775Z,89.86
2022-10-05T08:07:45.966Z,89.66
2022-10-05T08:10:23.599Z,89.62
2022-10-05T08:13:09.460Z,89.49
2022-10-05T08:15:46.333Z,89.40
2022-10-05T08:18:19.907Z,89.01
2022-10-05T08:20:55.781Z,88.78
2022-10-05T08:23:34.402Z,88.00
2022-10-05T08:26:24.790Z,87.43
2022-10-05T08:29:11.464Z,86.38
2022-10-05T08:31:43.900Z,85.88
2022-10-05T08:34:48.808Z,85.25
2022-10-05T08:37:25.306Z,84.80
2022-10-05T08:40:18.556Z,84.04
2022-10-05T08:42:57.896Z,84.22
2022-10-05T08:45:51.037Z,84.12
2022-10-05T08:48:49.521Z,83.54
2022-10-05T08:51:35.806Z,82.99
2022-10-05T08:54:21.628Z,82.44
2022-10-05T08:57:11.996Z,82.09
2022-10-05T08:59:48.459Z,81.56
2022-10-05T09:02:32.352Z,81.24
2022-10-05T09:05:33.277Z,80.93
2022-10-05T09:08:12.372Z,80.43
2022-10-05T09:11:07.697Z,79.92
2022-10-05T09:13:59.010Z,79.32
2022-10-05T09:16:51.671Z,78.90
2022-10-05T09:19:50.033Z,77.85
2022-10-05T09:22:17.521Z,77.64
2022-10-05T09:24:58.624Z,77.34
2022-10-05T09:27:38.016Z,76.59
2022-10-05T09:30:06.001Z,76.15
2022-10-05T09:32:45.208Z,74.68
2022-10-05T09:35:21.387Z,73.38
2022-10-05T09:38:10.636Z,71.54
2022-10-05T09:40:37.895Z,68.88
2022-10-05T09:43:26.965Z,68.18
2022-10-05T09:46:14.384Z,68.00
2022-10-05T09:49:16.738Z,67.67
2022-10-05T09:52:09.896Z,65.53
2022-10-05T09:54:49.457Z,67.34
2022-10-05T09:57:35.334Z,65.87
2022-10-05T10:00:26.738Z,65.60
2022-10-05T10:03:08.982Z,64.98
2022-10-05T10:05:54.939Z,65.42
2022-10-05T10:08:52.422Z,64.75
2022-10-05T10:11:56.627Z,65.15
2022-10-05T10:14:45.496Z,64.93
2022-10-05T10:17:33.275Z,65.66
2022-10-05T10:20:15.424Z,63.18
2022-10-05T10:23:23.530Z,63.32
2022-10-05T10:26:00.096Z,62.51
2022-10-05T10:28:43.815Z,63.03
2022-10-05T10:31:39.041Z,63.04
2022-10-05T10:34:34.362Z,63.99
2022-10-05T10:37:20.144Z,63.85
2022-10-05T10:40:09.097Z,64.19
2022-10-05T10:42:59.596Z,64.03
2022-10-05T10:45:39.023Z,64.63
2022-10-05T10:48:32.090Z,63.42
2022-10-05T10:51:19.636Z,63.96
2022-10-05T10:54:24.349Z,64.62
2022-10-05T10:57:15.972Z,64.92
2022-10-05T10:59:51.116Z,63.87
2022-10-05T11:02:30.377Z,63.60
2022-10-05T11:05:03.659Z,63.25
2022-10-05T11:07:33.754Z,63.68
2022-10-05T11:10:35.004Z,63.28
2022-10-05T11:13:17.634Z,63.11
2022-10-05T11:15:44.896Z,62.73
2022-10-05T11:18:47.336Z,62.68
2022-10-05T11:21:26.796Z,61.67
2022-10-05T11:24:19.929Z,61.79
2022-10-05T11:27:25.084Z,61.76
2022-10-05T11:30:11.197Z,61.50
2022-10-05T11:33:03.735Z,60.74
2022-10-05T11:36:00.015Z,61.53
2022-10-05T11:38:40.657Z,62.12
2022-10-05T11:41:12.614Z,61.26
2022-10-05T11:43:57.859Z,61.60
2022-10-05T11:46:30.914Z,62.00
2022-10-05T11:49:00.976Z,61.59
2022-10-05T11:51:34.544Z,62.13
2022-10-05T11:54:23.615Z,60.67
2022-10-05T11:57:01.258Z,61.08
2022-10-05T11:59:40.549Z,61.94
2022-10-05T12:02:40.048Z,61.01
2022-10-05T12:05:59.269Z,60.31
2022-10-05T12:08:48.797Z,59.37
2022-10-05T12:11:43.313Z,58.76
2022-10-05T12:14:24.510Z,59.05
2022-10-05T12:17:15.269Z,59.64
2022-10-05T12:19:46.071Z,58.33
2022-10-05T12:22:59.672Z,58.36
2022-10-05T12:25:36.115Z,58.76
2022-10-05T12:28:11.470Z,58.30
2022-10-05T12:30:52.152Z,58.18
2022-10-05T12:33:25.179Z,58.45
2022-10-05T12:36:12.738Z,58.86
2022-10-05T12:38:49.720Z,59.02
2022-10-05T12:41:28.062Z,58.69
2022-10-05T12:44:16.276Z,58.13
2022-10-05T12:47:02.558Z,58.95
2022-10-05T12:49:44.648Z,57.91
2022-10-05T12:52:38.584Z,58.08
2022-10-05T12:55:22.389Z,58.08
2022-10-05T12:58:35.671Z,58.06
2022-10-05T13:01:07.961Z,58.81
2022-10-05T13:03:38.633Z,59.56
2022-10-05T13:06:22.476Z,59.62
2022-10-05T13:09:08.994Z,59.62
2022-10-05T13:11:39.182Z,58.82
2022-10-05T13:14:36.458Z,57.27
2022-10-05T13:17:08.816Z,56.62
2022-10-05T13:19:39.853Z,57.82
2022-10-05T13:22:21.455Z,57.04
2022-10-05T13:24:57.190Z,55.70
2022-10-05T13:27:30.459Z,55.85
2022-10-05T13:29:59.396Z,55.26
2022-10-05T13:32:39.538Z,54.75
2022-10-05T13:36:00.302Z,55.36
2022-10-05T13:38:54.637Z,56.47
2022-10-05T13:41:44.114Z,56.80
2022-10-05T13:44:15.057Z,56.80
2022-10-05T13:47:04.214Z,56.87
2022-10-05T13:50:09.082Z,56.15
2022-10-05T13:53:11.914Z,55.52
2022-10-05T13:56:01.600Z,55.36
2022-10-05T13:58:28.846Z,56.42
2022-10-05T14:01:00.206Z,56.06
2022-10-05T14:03:30.348Z,55.50
2022-10-05T14:06:00.220Z,55.33
2022-10-05T14:08:34.214Z,56.31
2022-10-05T14:11:22.043Z,56.67
2022-10-05T14:13:50.567Z,56.51
2022-10-05T14:16:24.403Z,56.80
2022-10-05T14:18:54.655Z,57.31
2022-10-05T14:21:29.117Z,57.43
2022-10-05T14:23:59.654Z,57.68
2022-10-05T14:26:26.786Z,58.07
2022-10-05T14:29:17.338Z,58.02
2022-10-05T14:31:55.357Z,57.60
2022-10-05T14:34:37.072Z,58.06
2022-10-05T14:37:21.115Z,58.28
2022-10-05T14:39:50.312Z,58.54
2022-10-05T14:42:25.657Z,58.16
2022-10-05T14:45:01.942Z,58.22
2022-10-05T14:47:32.120Z,57.97
2022-10-05T14:50:26.631Z,57.82
2022-10-05T14:53:12.224Z,57.88
2022-10-05T14:55:51.058Z,58.16
2022-10-05T14:58:56.743Z,58.44
2022-10-05T15:01:31.204Z,59.43
2022-10-05T15:04:07.476Z,59.71
2022-10-05T15:07:15.696Z,59.25
2022-10-05T15:10:02.700Z,59.50
2022-10-05T15:12:36.230Z,60.69
2022-10-05T15:15:12.061Z,60.33
2022-10-05T15:17:50.979Z,60.51
2022-10-05T15:20:24.893Z,60.49
2022-10-05T15:23:08.426Z,60.76
2022-10-05T15:25:40.746Z,60.99
2022-10-05T15:28:14.156Z,61.45
2022-10-05T15:30:48.227Z,61.57
2022-10-05T15:33:28.076Z,61.91
2022-10-05T15:36:00.859Z,61.95
2022-10-05T15:38:32.810Z,62.41
2022-10-05T15:41:21.453Z,62.28
2022-10-05T15:44:10.217Z,62.56
2022-10-05T15:46:56.808Z,62.96
2022-10-05T15:49:34.711Z,63.25
2022-10-05T15:52:28.381Z,63.30
2022-10-05T15:55:20.215Z,63.34
2022-10-05T15:57:59.958Z,63.56
2022-10-05T16:00:28.428Z,63.83
2022-10-05T16:03:09.103Z,64.01
2022-10-05T16:06:03.494Z,64.15
2022-10-05T16:08:49.372Z,64.38
2022-10-05T16:11:37.004Z,64.69
2022-10-05T16:14:34.977Z,65.07
2022-10-05T16:17:14.513Z,65.38
2022-10-05T16:20:07.885Z,65.70
2022-10-05T16:22:59.909Z,66.16
2022-10-05T16:25:34.970Z,66.43
2022-10-05T16:28:17.003Z,66.86
2022-10-05T16:31:01.109Z,67.12
2022-10-05T16:33:37.247Z,67.36
2022-10-05T16:36:18.020Z,67.72
2022-10-05T16:38:48.446Z,67.88
2022-10-05T16:41:43.902Z,68.09
2022-10-05T16:44:39.654Z,68.38
2022-10-05T16:47:31.404Z,68.57
2022-10-05T16:50:22.419Z,68.81
2022-10-05T16:53:21.733Z,69.07
2022-10-05T16:55:53.515Z,69.41
2022-10-05T16:58:24.128Z,69.45
2022-10-05T17:01:23.337Z,69.87
2022-10-05T17:04:12.497Z,70.31
2022-10-05T17:06:48.634Z,70.33
2022-10-05T17:09:36.060Z,70.62
2022-10-05T17:12:40.687Z,71.00
2022-10-05T17:15:20.228Z,71.40
2022-10-05T17:18:02.020Z,71.69
2022-10-05T17:20:56.232Z,71.98
2022-10-05T17:23:44.456Z,72.18
2022-10-05T17:26:24.012Z,72.73
2022-10-05T17:29:10.240Z,72.98
2022-10-05T17:32:00.379Z,73.32
2022-10-05T17:34:38.926Z,73.74
2022-10-05T17:37:39.829Z,74.03
2022-10-05T17:40:36.677Z,74.17
2022-10-05T17:43:16.485Z,74.30
2022-10-05T17:45:46.327Z,74.62
2022-10-05T17:48:42.166Z,74.78
2022-10-05T17:51:57.544Z,75.22
2022-10-05T17:55:09.343Z,75.59
2022-10-05T17:57:37.395Z,75.82
2022-10-05T18:00:07.076Z,76.00
2022-10-05T18:02:40.407Z,75.90
2022-10-05T18:05:12.884Z,75.90
2022-10-05T18:07:41.264Z,76.04
2022-10-05T18:10:17.937Z,76.38
2022-10-05T18:13:02.294Z,76.61
2022-10-05T18:15:30.194Z,76.59
2022-10-05T18:18:19.957Z,76.68
2022-10-05T18:21:17.713Z,76.63
2022-10-05T18:23:52.738Z,76.87
2022-10-05T18:26:35.673Z,77.18
2022-10-05T18:29:15.027Z,77.24
2022-10-05T18:32:01.535Z,77.32
2022-10-05T18:35:00.990Z,77.64
2022-10-05T18:37:36.139Z,77.70
2022-10-05T18:40:27.733Z,77.98
2022-10-05T18:43:21.845Z,77.97
2022-10-05T18:46:16.058Z,78.11
2022-10-05T18:49:20.949Z,78.11
2022-10-05T18:51:53.656Z,78.36
2022-10-05T18:54:59.095Z,78.60
2022-10-05T18:57:42.933Z,78.52
2022-10-05T19:00:20.700Z,78.88
2022-10-05T19:02:59.205Z,79.08
2022-10-05T19:05:52.911Z,79.30
2022-10-05T19:08:28.620Z,79.46
2022-10-05T19:11:23.678Z,79.61
2022-10-05T19:14:00.163Z,79.69
2022-10-05T19:16:37.523Z,79.70
2022-10-05T19:19:16.320Z,79.77
2022-10-05T19:22:11.973Z,79.73
2022-10-05T19:24:42.192Z,79.85
2022-10-05T19:27:36.344Z,80.00
2022-10-05T19:30:23.696Z,80.26
2022-10-05T19:32:58.885Z,80.47
2022-10-05T19:35:41.853Z,80.46
2022-10-05T19:38:42.856Z,80.51
2022-10-05T19:41:17.229Z,80.47
2022-10-05T19:43:58.826Z,80.52
2022-10-05T19:46:55.679Z,80.58
2022-10-05T19:49:44.510Z,80.74
2022-10-05T19:52:14.527Z,80.99
2022-10-05T19:54:42.870Z,81.11
2022-10-05T19:57:18.423Z,81.07
2022-10-05T19:59:48.145Z,81.28
2022-10-05T20:02:18.177Z,81.51
2022-10-05T20:04:50.023Z,81.60
2022-10-05T20:07:22.345Z,81.70
2022-10-05T20:10:15.077Z,81.80
2022-10-05T20:12:51.141Z,82.05
2022-10-05T20:15:52.134Z,82.13
2022-10-05T20:18:57.899Z,82.24
2022-10-05T20:22:02.237Z,82.23
2022-10-05T20:24:32.311Z,82.22
2022-10-05T20:27:07.139Z,82.29
2022-10-05T20:29:39.602Z,82.56
2022-10-05T20:32:15.603Z,82.67
2022-10-05T20:34:44.742Z,82.71
2022-10-05T20:37:15.121Z,82.84
2022-10-05T20:39:42.773Z,83.03
2022-10-05T20:42:11.160Z,83.11
2022-10-05T20:44:38.883Z,82.85
2022-10-05T20:47:09.210Z,82.96
2022-10-05T20:49:37.960Z,83.07
2022-10-05T20:52:06.742Z,83.15
2022-10-05T20:54:34.413Z,83.11
2022-10-05T20:57:02.959Z,83.10
2022-10-05T20:59:30.246Z,83.02
2022-10-05T21:01:59.406Z,83.03
2022-10-05T21:04:32.792Z,83.01
2022-10-05T21:07:07.360Z,83.13
2022-10-05T21:09:34.610Z,82.99
2022-10-05T21:12:01.762Z,82.98
2022-10-05T21:14:33.395Z,83.12
2022-10-05T21:17:01.278Z,83.19
2022-10-05T21:19:30.056Z,83.50
2022-10-05T21:22:01.027Z,83.59
2022-10-05T21:24:28.195Z,83.93
2022-10-05T21:26:58.456Z,83.83
2022-10-05T21:29:25.601Z,83.86
2022-10-05T21:31:52.949Z,83.98
2022-10-05T21:34:20.313Z,83.97
2022-10-05T21:36:47.597Z,84.17
2022-10-05T21:39:14.714Z,84.23
2022-10-05T21:41:41.870Z,84.48
2022-10-05T21:44:10.258Z,84.34
2022-10-05T21:46:38.638Z,84.36
2022-10-05T21:49:07.341Z,84.71
2022-10-05T21:51:35.696Z,85.00
2022-10-05T21:54:16.357Z,85.04
2022-10-05T21:56:45.860Z,84.94
2022-10-05T21:59:15.875Z,84.83
2022-10-05T22:01:44.049Z,85.11
2022-10-05T22:04:11.192Z,85.33
2022-10-05T22:06:38.296Z,85.43
2022-10-05T22:09:05.820Z,85.38
2022-10-05T22:11:33.699Z,85.56
2022-10-05T22:14:04.021Z,85.81
2022-10-05T22:16:34.674Z,85.93
2022-10-05T22:19:06.484Z,86.15
2022-10-05T22:21:38.296Z,86.08
2022-10-05T22:24:05.998Z,85.87
2022-10-05T22:26:33.379Z,86.07
2022-10-05T22:29:02.080Z,86.62
2022-10-05T22:31:29.536Z,87.70
2022-10-05T22:33:57.306Z,88.43
2022-10-05T22:36:24.504Z,88.70
2022-10-05T22:38:51.868Z,89.75
2022-10-05T22:41:19.953Z,90.09
2022-10-05T22:43:50.464Z,90.59
2022-10-05T22:46:18.036Z,90.97
2022-10-05T22:48:45.293Z,90.67
2022-10-05T22:51:12.649Z,90.11
2022-10-05T22:53:40.109Z,89.39
2022-10-05T22:56:12.896Z,88.83
2022-10-05T22:58:40.750Z,88.23
2022-10-05T23:01:10.427Z,87.77
2022-10-05T23:03:37.790Z,87.21
2022-10-05T23:06:10.609Z,86.85
2022-10-05T23:08:38.608Z,86.50
2022-10-05T23:11:05.763Z,85.89
2022-10-05T23:13:33.872Z,85.79
2022-10-05T23:16:16.227Z,85.40
2022-10-05T23:18:44.058Z,85.24
2022-10-05T23:21:12.040Z,85.34
2022-10-05T23:23:41.637Z,84.96
2022-10-05T23:26:10.838Z,84.79
2022-10-05T23:28:40.648Z,84.82
2022-10-05T23:31:09.276Z,84.68
2022-10-05T23:33:36.697Z,84.63
2022-10-05T23:36:07.735Z,84.51
2022-10-05T23:38:36.308Z,84.37
2022-10-05T23:41:04.791Z,84.33
2022-10-05T23:43:33.646Z,84.28
2022-10-05T23:46:00.996Z,84.08
2022-10-05T23:48:28.533Z,83.90
2022-10-05T23:50:56.350Z,83.64
2022-10-05T23:53:23.811Z,83.54
2022-10-05T23:55:54.676Z,83.37
2022-10-05T23:58:22.535Z,83.22
